Terminal Aerodrome Forecast
Issued by NWS Shreveport, LA

Home | Current Version | Previous Version | Text Only | Print | Product List | Glossary On
Versions: 1 2 3 4 5 6 7 8 9 10 11 12 13 14 15 16 17 18 19
000
FTUS44 KSHV 200100 CCA
TAFSHV
TAF COR
KSHV 200100Z 2001/2024 03006KT 4SM BR OVC007
      TEMPO 2001/2003 2SM -DZ BR OVC005
     FM200400 03005KT 5SM BR OVC007
     FM201600 04005KT P6SM SCT009 OVC012
     FM202000 04005KT P6SM BKN020=

USA.gov is the U.S. government's official web portal to all federal, state and local government web resources and services.